createdAt,value
2022-12-13T00:01:51.968Z,-7.66
2022-12-13T00:04:20.319Z,-7.67
2022-12-13T00:06:47.238Z,-7.70
2022-12-13T00:09:15.623Z,-7.71
2022-12-13T00:11:42.803Z,-7.65
2022-12-13T00:14:09.444Z,-7.65
2022-12-13T00:16:36.036Z,-7.67
2022-12-13T00:19:02.783Z,-7.68
2022-12-13T00:21:31.472Z,-7.64
2022-12-13T00:23:59.111Z,-7.64
2022-12-13T00:26:28.827Z,-7.68
2022-12-13T00:28:56.575Z,-7.66
2022-12-13T00:34:12.149Z,-7.60
2022-12-13T00:36:38.568Z,-7.53
2022-12-13T00:39:05.067Z,-7.58
2022-12-13T00:41:33.839Z,-7.54
2022-12-13T00:44:01.362Z,-7.54
2022-12-13T00:46:28.868Z,-7.56
2022-12-13T00:48:57.833Z,-7.60
2022-12-13T00:51:25.555Z,-7.61
2022-12-13T00:53:52.288Z,-7.72
2022-12-13T00:56:22.132Z,-7.72
2022-12-13T00:58:52.073Z,-7.71
2022-12-13T01:01:21.367Z,-7.68
2022-12-13T01:03:48.259Z,-7.71
2022-12-13T01:06:19.584Z,-7.74
2022-12-13T01:08:46.736Z,-7.76
2022-12-13T01:11:14.457Z,-7.77
2022-12-13T01:13:41.312Z,-7.76
2022-12-13T01:16:10.232Z,-7.79
2022-12-13T01:18:37.264Z,-7.77
2022-12-13T01:21:10.845Z,-7.81
2022-12-13T01:23:37.907Z,-7.87
2022-12-13T01:26:06.495Z,-7.88
2022-12-13T01:28:33.378Z,-7.89
2022-12-13T01:31:02.400Z,-7.91
2022-12-13T01:33:30.091Z,-7.97
2022-12-13T01:35:57.009Z,-7.97
2022-12-13T01:38:26.449Z,-7.92
2022-12-13T01:40:59.419Z,-7.99
2022-12-13T01:43:54.355Z,-8.01
2022-12-13T01:46:20.869Z,-8.00
2022-12-13T01:48:55.429Z,-8.02
2022-12-13T01:51:27.596Z,-8.06
2022-12-13T01:53:59.766Z,-8.02
2022-12-13T01:56:33.720Z,-8.01
2022-12-13T01:59:02.026Z,-8.04
2022-12-13T02:01:29.061Z,-8.04
2022-12-13T02:03:55.661Z,-8.03
2022-12-13T02:06:34.786Z,-8.02
2022-12-13T02:09:03.607Z,-8.08
2022-12-13T02:11:30.366Z,-8.10
2022-12-13T02:13:56.963Z,-8.07
2022-12-13T02:16:42.150Z,-8.03
2022-12-13T02:19:45.955Z,-7.99
2022-12-13T02:22:27.481Z,-7.91
2022-12-13T02:25:22.566Z,-7.89
2022-12-13T02:28:48.140Z,-7.90
2022-12-13T02:31:26.083Z,-7.93
2022-12-13T02:34:05.423Z,-7.90
2022-12-13T02:36:57.230Z,-7.94
2022-12-13T02:39:31.141Z,-7.99
2022-12-13T02:42:04.118Z,-7.96
2022-12-13T02:44:37.806Z,-7.94
2022-12-13T02:47:12.772Z,-7.97
2022-12-13T02:49:53.788Z,-8.06
2022-12-13T02:52:24.962Z,-8.06
2022-12-13T02:54:54.800Z,-8.10
2022-12-13T02:57:34.589Z,-8.10
2022-12-13T03:00:15.534Z,-8.03
2022-12-13T03:03:05.747Z,-8.02
2022-12-13T03:05:56.921Z,-7.99
2022-12-13T03:08:29.794Z,-7.96
2022-12-13T03:11:05.515Z,-7.95
2022-12-13T03:13:38.137Z,-7.97
2022-12-13T03:16:14.629Z,-7.96
2022-12-13T03:18:51.715Z,-7.97
2022-12-13T03:21:18.534Z,-8.02
2022-12-13T03:23:46.865Z,-8.02
2022-12-13T03:26:20.974Z,-8.04
2022-12-13T03:28:48.145Z,-8.00
2022-12-13T03:31:14.806Z,-8.13
2022-12-13T03:33:41.290Z,-8.10
2022-12-13T03:36:09.209Z,-8.08
2022-12-13T03:38:36.224Z,-8.05
2022-12-13T03:41:06.998Z,-7.94
2022-12-13T03:43:33.672Z,-7.93
2022-12-13T03:46:01.889Z,-7.99
2022-12-13T03:48:28.438Z,-8.03
2022-12-13T03:50:55.476Z,-8.02
2022-12-13T03:53:33.592Z,-7.99
2022-12-13T03:56:04.938Z,-8.08
2022-12-13T03:58:36.543Z,-8.02
2022-12-13T04:01:12.663Z,-8.01
2022-12-13T04:03:40.945Z,-8.04
2022-12-13T04:06:08.679Z,-8.03
2022-12-13T04:08:36.834Z,-8.08
2022-12-13T04:11:23.950Z,-8.14
2022-12-13T04:13:50.838Z,-8.19
2022-12-13T04:16:17.435Z,-8.15
2022-12-13T04:18:43.994Z,-8.15
2022-12-13T04:21:10.758Z,-8.12
2022-12-13T04:23:37.357Z,-8.13
2022-12-13T04:26:03.828Z,-8.13
2022-12-13T04:28:30.238Z,-8.07
2022-12-13T04:30:56.723Z,-7.99
2022-12-13T04:33:23.617Z,-8.00
2022-12-13T04:35:50.899Z,-7.96
2022-12-13T04:38:18.226Z,-8.01
2022-12-13T04:40:44.909Z,-7.97
2022-12-13T04:43:11.450Z,-8.02
2022-12-13T04:45:37.900Z,-8.04
2022-12-13T04:48:05.214Z,-8.03
2022-12-13T04:50:32.611Z,-8.02
2022-12-13T04:52:59.090Z,-8.01
2022-12-13T04:55:25.835Z,-7.94
2022-12-13T04:57:52.515Z,-7.95
2022-12-13T05:00:21.127Z,-7.94
2022-12-13T05:02:48.025Z,-7.92
2022-12-13T05:05:15.059Z,-7.93
2022-12-13T05:07:42.571Z,-7.82
2022-12-13T05:10:10.805Z,-7.75
2022-12-13T05:12:37.265Z,-7.71
2022-12-13T05:15:05.124Z,-7.73
2022-12-13T05:17:31.750Z,-7.63
2022-12-13T05:19:58.228Z,-7.63
2022-12-13T05:22:24.917Z,-7.60
2022-12-13T05:24:51.394Z,-7.65
2022-12-13T05:27:24.526Z,-7.65
2022-12-13T05:30:04.292Z,-7.66
2022-12-13T05:32:43.348Z,-7.65
2022-12-13T05:35:22.767Z,-7.61
2022-12-13T05:37:54.768Z,-7.57
2022-12-13T05:40:23.270Z,-7.68
2022-12-13T05:42:49.839Z,-7.66
2022-12-13T05:45:18.635Z,-7.72
2022-12-13T05:47:45.801Z,-7.74
2022-12-13T05:50:13.511Z,-7.70
2022-12-13T05:52:40.286Z,-7.72
2022-12-13T05:55:06.942Z,-7.70
2022-12-13T05:57:34.083Z,-7.66
2022-12-13T06:00:00.932Z,-7.65
2022-12-13T06:02:28.481Z,-7.67
2022-12-13T06:04:55.152Z,-7.74
2022-12-13T06:07:21.570Z,-7.79
2022-12-13T06:09:48.381Z,-7.83
2022-12-13T06:12:32.493Z,-7.92
2022-12-13T06:15:00.962Z,-7.93
2022-12-13T06:17:36.097Z,-7.86
2022-12-13T06:20:23.186Z,-7.89
2022-12-13T06:22:50.674Z,-7.82
2022-12-13T06:25:31.092Z,-7.76
2022-12-13T06:28:01.193Z,-7.79
2022-12-13T06:30:29.683Z,-7.86
2022-12-13T06:32:56.895Z,-7.88
2022-12-13T06:35:28.288Z,-7.89
2022-12-13T06:38:00.917Z,-7.92
2022-12-13T06:40:32.349Z,-7.91
2022-12-13T06:42:58.808Z,-7.94
2022-12-13T06:45:25.812Z,-7.93
2022-12-13T06:47:52.700Z,-7.96
2022-12-13T06:50:19.401Z,-7.98
2022-12-13T06:52:46.800Z,-7.94
2022-12-13T06:55:13.691Z,-7.94
2022-12-13T06:57:40.793Z,-7.89
2022-12-13T07:00:08.468Z,-7.84
2022-12-13T07:02:35.080Z,-7.82
2022-12-13T07:05:04.261Z,-7.78
2022-12-13T07:07:30.933Z,-7.79
2022-12-13T07:09:57.392Z,-7.86
2022-12-13T07:12:24.009Z,-7.89
2022-12-13T07:14:52.223Z,-7.90
2022-12-13T07:17:32.037Z,-7.87
2022-12-13T07:20:00.951Z,-7.92
2022-12-13T07:22:27.828Z,-7.90
2022-12-13T07:24:54.264Z,-7.83
2022-12-13T07:27:20.901Z,-7.82
2022-12-13T07:29:47.370Z,-7.84
2022-12-13T07:32:14.605Z,-7.81
2022-12-13T07:34:41.740Z,-7.79
2022-12-13T07:37:09.251Z,-7.73
2022-12-13T07:40:02.704Z,-7.65
2022-12-13T07:42:30.193Z,-7.58
2022-12-13T07:44:56.634Z,-7.53
2022-12-13T07:47:23.333Z,-7.57
2022-12-13T07:49:50.027Z,-7.52
2022-12-13T07:52:16.692Z,-7.49
2022-12-13T07:54:43.821Z,-7.42
2022-12-13T07:57:10.255Z,-7.44
2022-12-13T07:59:36.722Z,-7.39
2022-12-13T08:02:03.315Z,-7.37
2022-12-13T08:04:29.871Z,-7.37
2022-12-13T08:07:11.423Z,-7.37
2022-12-13T08:09:38.125Z,-7.36
2022-12-13T08:12:05.348Z,-7.39
2022-12-13T08:14:32.093Z,-7.40
2022-12-13T08:16:58.545Z,-7.38
2022-12-13T08:19:25.246Z,-7.33
2022-12-13T08:21:55.587Z,-7.26
2022-12-13T08:24:28.550Z,-7.25
2022-12-13T08:27:00.766Z,-7.26
2022-12-13T08:29:34.371Z,-7.26
2022-12-13T08:32:10.986Z,-7.23
2022-12-13T08:34:37.965Z,-7.31
2022-12-13T08:37:05.110Z,-7.31
2022-12-13T08:39:35.300Z,-7.27
2022-12-13T08:42:17.184Z,-7.16
2022-12-13T08:44:46.822Z,-7.12
2022-12-13T08:47:22.953Z,-7.01
2022-12-13T08:50:01.891Z,-7.04
2022-12-13T08:52:30.211Z,-6.94
2022-12-13T08:54:56.603Z,-6.87
2022-12-13T08:57:23.046Z,-6.79
2022-12-13T08:59:49.563Z,-6.72
2022-12-13T09:02:16.681Z,-6.67
2022-12-13T09:04:44.491Z,-6.65
2022-12-13T09:07:10.984Z,-6.59
2022-12-13T09:09:37.732Z,-6.54
2022-12-13T09:12:10.348Z,-6.52
2022-12-13T09:14:38.225Z,-6.52
2022-12-13T09:17:23.723Z,-6.47
2022-12-13T09:19:57.811Z,-6.38
2022-12-13T09:22:33.060Z,-6.30
2022-12-13T09:25:03.883Z,-6.21
2022-12-13T09:27:39.690Z,-6.11
2022-12-13T09:30:08.526Z,-6.07
2022-12-13T09:32:34.973Z,-6.02
2022-12-13T09:35:01.868Z,-5.96
2022-12-13T09:37:29.690Z,-5.94
2022-12-13T09:39:56.294Z,-5.85
2022-12-13T09:42:30.660Z,-5.79
2022-12-13T09:45:22.284Z,-5.74
2022-12-13T09:47:51.382Z,-5.67
2022-12-13T09:50:28.726Z,-5.61
2022-12-13T09:53:11.928Z,-5.62
2022-12-13T09:55:49.815Z,-5.43
2022-12-13T09:58:31.749Z,-5.34
2022-12-13T10:00:59.229Z,-5.40
2022-12-13T10:03:26.750Z,-5.36
2022-12-13T10:05:58.931Z,-5.18
2022-12-13T10:08:35.249Z,-5.23
2022-12-13T10:11:03.289Z,-5.15
2022-12-13T10:13:42.152Z,-5.03
2022-12-13T10:16:23.780Z,-5.05
2022-12-13T10:18:51.170Z,-5.07
2022-12-13T10:21:27.660Z,-4.92
2022-12-13T10:26:41.110Z,-4.81
2022-12-13T10:29:08.555Z,-4.80
2022-12-13T10:31:48.060Z,-4.75
2022-12-13T10:34:21.475Z,-4.69
2022-12-13T10:36:48.599Z,-4.61
2022-12-13T10:39:37.039Z,-4.47
2022-12-13T10:42:06.075Z,-4.50
2022-12-13T10:44:32.510Z,-4.49
2022-12-13T10:47:17.057Z,-4.47
2022-12-13T10:49:59.218Z,-4.39
2022-12-13T10:52:33.261Z,-4.34
2022-12-13T10:55:23.223Z,-4.30
2022-12-13T10:57:53.502Z,-4.14
2022-12-13T11:00:44.953Z,-4.13
2022-12-13T11:03:55.823Z,-4.14
2022-12-13T11:06:43.236Z,-4.06
2022-12-13T11:09:28.226Z,-4.05
2022-12-13T11:11:58.715Z,-4.00
2022-12-13T11:14:31.796Z,-3.95
2022-12-13T11:17:19.051Z,-3.90
2022-12-13T11:19:49.179Z,-3.89
2022-12-13T11:22:28.102Z,-3.83
2022-12-13T11:25:05.881Z,-3.79
2022-12-13T11:27:47.981Z,-3.78
2022-12-13T11:30:37.676Z,-3.74
2022-12-13T11:33:22.493Z,-3.66
2022-12-13T11:36:04.386Z,-3.62
2022-12-13T11:38:42.309Z,-3.56
2022-12-13T11:41:32.095Z,-3.43
2022-12-13T11:44:10.210Z,-3.45
2022-12-13T11:46:53.338Z,-3.39
2022-12-13T11:49:42.302Z,-3.36
2022-12-13T11:52:19.143Z,-3.28
2022-12-13T11:55:00.553Z,-3.29
2022-12-13T11:57:46.693Z,-3.17
2022-12-13T12:00:34.322Z,-3.26
2022-12-13T12:03:15.739Z,-3.19
2022-12-13T12:05:48.063Z,-3.15
2022-12-13T12:08:43.480Z,-3.06
2022-12-13T12:11:15.062Z,-3.05
2022-12-13T12:13:51.654Z,-2.98
2022-12-13T12:16:31.736Z,-2.97
2022-12-13T12:19:01.338Z,-2.91
2022-12-13T12:22:13.326Z,-2.88
2022-12-13T12:24:39.128Z,-2.85
2022-12-13T12:27:24.440Z,-2.85
2022-12-13T12:29:50.894Z,-2.73
2022-12-13T12:32:26.764Z,-2.83
2022-12-13T12:34:53.393Z,-2.80
2022-12-13T12:37:30.684Z,-2.75
2022-12-13T12:40:18.976Z,-2.74
2022-12-13T12:43:15.789Z,-2.62
2022-12-13T12:46:20.558Z,-2.59
2022-12-13T12:49:12.287Z,-2.58
2022-12-13T12:51:41.659Z,-2.55
2022-12-13T12:54:33.051Z,-2.54
2022-12-13T12:57:15.614Z,-2.52
2022-12-13T13:00:04.104Z,-2.47
2022-12-13T13:02:45.012Z,-2.47
2022-12-13T13:05:23.659Z,-2.45
2022-12-13T13:07:56.629Z,-2.49
2022-12-13T13:10:26.075Z,-2.46
2022-12-13T13:13:11.909Z,-2.39
2022-12-13T13:15:39.605Z,-2.37
2022-12-13T13:18:45.545Z,-2.33
2022-12-13T13:21:32.933Z,-2.35
2022-12-13T13:24:08.498Z,-2.36
2022-12-13T13:26:42.589Z,-2.36
2022-12-13T13:29:27.694Z,-2.39
2022-12-13T13:32:12.813Z,-2.43
2022-12-13T13:35:28.738Z,-2.44
2022-12-13T13:37:56.193Z,-2.47
2022-12-13T13:40:31.558Z,-2.48
2022-12-13T13:43:10.516Z,-2.51
2022-12-13T13:45:49.594Z,-2.30
2022-12-13T13:48:19.367Z,-2.44
2022-12-13T13:51:21.694Z,-2.51
2022-12-13T13:54:16.034Z,-2.57
2022-12-13T13:57:14.867Z,-2.60
2022-12-13T14:00:10.065Z,-2.62
2022-12-13T14:03:22.504Z,-2.66
2022-12-13T14:06:27.238Z,-2.53
2022-12-13T14:08:56.519Z,-2.58
2022-12-13T14:11:52.822Z,-2.66
2022-12-13T14:15:01.500Z,-2.77
2022-12-13T14:18:12.379Z,-2.76
2022-12-13T14:20:45.064Z,-2.82
2022-12-13T14:23:33.643Z,-2.84
2022-12-13T14:26:23.659Z,-2.87
2022-12-13T14:28:56.665Z,-2.93
2022-12-13T14:31:28.302Z,-3.02
2022-12-13T14:33:57.683Z,-3.02
2022-12-13T14:36:32.141Z,-3.07
2022-12-13T14:39:01.270Z,-3.12
2022-12-13T14:41:27.916Z,-3.15
2022-12-13T14:43:54.381Z,-3.19
2022-12-13T14:46:21.212Z,-3.20
2022-12-13T14:48:53.700Z,-3.18
2022-12-13T14:51:33.548Z,-3.21
2022-12-13T14:54:02.447Z,-3.26
2022-12-13T14:56:29.456Z,-3.28
2022-12-13T14:59:01.503Z,-3.36
2022-12-13T15:01:32.564Z,-3.40
2022-12-13T15:04:18.517Z,-3.50
2022-12-13T15:06:48.520Z,-3.55
2022-12-13T15:09:16.725Z,-3.61
2022-12-13T15:11:45.159Z,-3.64
2022-12-13T15:14:20.547Z,-3.68
2022-12-13T15:16:53.232Z,-3.71
2022-12-13T15:19:30.954Z,-3.76
2022-12-13T15:22:14.690Z,-3.83
2022-12-13T15:24:49.000Z,-3.89
2022-12-13T15:27:26.768Z,-3.90
2022-12-13T15:29:54.421Z,-3.91
2022-12-13T15:32:25.089Z,-3.91
2022-12-13T15:34:51.946Z,-3.98
2022-12-13T15:37:29.451Z,-4.03
2022-12-13T15:40:00.761Z,-4.04
2022-12-13T15:42:35.352Z,-4.08
2022-12-13T15:45:06.233Z,-4.13
2022-12-13T15:47:33.427Z,-4.21
2022-12-13T15:50:02.503Z,-4.25
2022-12-13T15:52:39.083Z,-4.31
2022-12-13T15:55:05.474Z,-4.37
2022-12-13T15:57:47.953Z,-4.40
2022-12-13T16:00:17.363Z,-4.49
2022-12-13T16:02:53.240Z,-4.59
2022-12-13T16:05:30.205Z,-4.65
2022-12-13T16:08:00.348Z,-4.75
2022-12-13T16:10:47.114Z,-4.89
2022-12-13T16:13:26.553Z,-4.92
2022-12-13T16:16:00.325Z,-4.96
2022-12-13T16:18:50.905Z,-4.99
2022-12-13T16:21:17.342Z,-5.04
2022-12-13T16:23:48.818Z,-5.06
2022-12-13T16:26:22.244Z,-5.06
2022-12-13T16:28:49.095Z,-5.15
2022-12-13T16:31:24.079Z,-5.16
2022-12-13T16:33:51.498Z,-5.20
2022-12-13T16:36:18.294Z,-5.22
2022-12-13T16:38:44.791Z,-5.26
2022-12-13T16:41:11.575Z,-5.29
2022-12-13T16:43:46.427Z,-5.32
2022-12-13T16:47:15.154Z,-5.33
2022-12-13T16:49:14.924Z,-5.36
2022-12-13T16:51:46.482Z,-5.41
2022-12-13T16:54:14.934Z,-5.48
2022-12-13T16:56:41.543Z,-5.51
2022-12-13T16:59:12.642Z,-5.51
2022-12-13T17:01:39.260Z,-5.46
2022-12-13T17:04:13.936Z,-5.47
2022-12-13T17:06:45.610Z,-5.51
2022-12-13T17:09:12.145Z,-5.52
2022-12-13T17:11:38.593Z,-5.51
2022-12-13T17:14:05.822Z,-5.50
2022-12-13T17:16:32.469Z,-5.54
2022-12-13T17:18:58.951Z,-5.58
2022-12-13T17:21:26.387Z,-5.68
2022-12-13T17:24:00.669Z,-5.76
2022-12-13T17:26:29.013Z,-5.77
2022-12-13T17:28:55.868Z,-5.79
2022-12-13T17:31:22.469Z,-5.81
2022-12-13T17:33:49.650Z,-5.84
2022-12-13T17:36:17.274Z,-5.96
2022-12-13T17:38:45.646Z,-5.98
2022-12-13T17:41:13.514Z,-6.11
2022-12-13T17:43:41.063Z,-6.11
2022-12-13T17:46:13.226Z,-6.10
2022-12-13T17:48:41.374Z,-6.13
2022-12-13T17:51:09.819Z,-6.13
2022-12-13T17:53:38.165Z,-6.19
2022-12-13T17:56:07.703Z,-6.17
2022-12-13T17:58:34.662Z,-6.16
2022-12-13T18:01:30.349Z,-6.17
2022-12-13T18:03:57.271Z,-6.19
2022-12-13T18:06:25.723Z,-6.21
2022-12-13T18:08:52.499Z,-6.24
2022-12-13T18:11:36.161Z,-6.31
2022-12-13T18:14:07.887Z,-6.36
2022-12-13T18:16:38.226Z,-6.47
2022-12-13T18:19:11.758Z,-6.46
2022-12-13T18:21:38.573Z,-6.50
2022-12-13T18:24:07.895Z,-6.52
2022-12-13T18:26:34.640Z,-6.53
2022-12-13T18:29:01.447Z,-6.55
2022-12-13T18:31:28.301Z,-6.50
2022-12-13T18:33:55.650Z,-6.52
2022-12-13T18:36:24.793Z,-6.53
2022-12-13T18:38:51.519Z,-6.53
2022-12-13T18:41:24.526Z,-6.61
2022-12-13T18:44:04.448Z,-6.63
2022-12-13T18:46:33.201Z,-6.66
2022-12-13T18:48:59.775Z,-6.68
2022-12-13T18:51:27.259Z,-6.66
2022-12-13T18:53:55.806Z,-6.65
2022-12-13T18:56:23.554Z,-6.66
2022-12-13T18:58:50.679Z,-6.77
2022-12-13T19:01:18.722Z,-6.73
2022-12-13T19:03:48.209Z,-6.78
2022-12-13T19:06:21.315Z,-6.79
2022-12-13T19:08:49.928Z,-6.80
2022-12-13T19:11:17.613Z,-6.83
2022-12-13T19:13:44.704Z,-6.83
2022-12-13T19:16:14.417Z,-6.87
2022-12-13T19:18:41.308Z,-6.89
2022-12-13T19:21:08.970Z,-6.94
2022-12-13T19:23:35.888Z,-6.98
2022-12-13T19:26:08.840Z,-6.94
2022-12-13T19:28:36.398Z,-6.96
2022-12-13T19:31:04.809Z,-6.98
2022-12-13T19:33:32.384Z,-7.02
2022-12-13T19:35:59.179Z,-7.03
2022-12-13T19:38:25.869Z,-7.07
2022-12-13T19:40:52.660Z,-7.07
2022-12-13T19:43:21.227Z,-7.10
2022-12-13T19:45:49.402Z,-7.13
2022-12-13T19:48:16.283Z,-7.25
2022-12-13T19:50:44.170Z,-7.28
2022-12-13T19:53:10.657Z,-7.27
2022-12-13T19:55:42.770Z,-7.31
2022-12-13T19:58:09.246Z,-7.31
2022-12-13T20:00:35.748Z,-7.37
2022-12-13T20:03:04.121Z,-7.39
2022-12-13T20:05:31.013Z,-7.41
2022-12-13T20:07:57.948Z,-7.41
2022-12-13T20:10:25.556Z,-7.46
2022-12-13T20:12:52.297Z,-7.46
2022-12-13T20:15:18.947Z,-7.49
2022-12-13T20:17:45.375Z,-7.51
2022-12-13T20:20:11.948Z,-7.60
2022-12-13T20:22:38.399Z,-7.59
2022-12-13T20:25:06.950Z,-7.56
2022-12-13T20:27:33.619Z,-7.49
2022-12-13T20:30:00.221Z,-7.52
2022-12-13T20:32:26.685Z,-7.62
2022-12-13T20:34:55.138Z,-7.60
2022-12-13T20:37:23.955Z,-7.57
2022-12-13T20:39:50.875Z,-7.54
2022-12-13T20:42:17.432Z,-7.51
2022-12-13T20:44:43.900Z,-7.57
2022-12-13T20:47:11.002Z,-7.66
2022-12-13T20:49:37.580Z,-7.64
2022-12-13T20:52:04.318Z,-7.60
2022-12-13T20:54:30.875Z,-7.58
2022-12-13T20:56:57.404Z,-7.59
2022-12-13T20:59:24.029Z,-7.66
2022-12-13T21:01:50.875Z,-7.72
2022-12-13T21:04:20.395Z,-7.78
2022-12-13T21:06:47.046Z,-7.75
2022-12-13T21:09:13.638Z,-7.76
2022-12-13T21:11:46.701Z,-7.78
2022-12-13T21:14:20.809Z,-7.82
2022-12-13T21:17:05.344Z,-7.83
2022-12-13T21:19:39.084Z,-7.86
2022-12-13T21:22:06.964Z,-7.86
2022-12-13T21:24:33.474Z,-7.90
2022-12-13T21:27:00.171Z,-7.92
2022-12-13T21:29:27.395Z,-7.97
2022-12-13T21:31:54.688Z,-7.93
2022-12-13T21:34:22.473Z,-7.94
2022-12-13T21:36:52.382Z,-7.92
2022-12-13T21:39:22.760Z,-7.88
2022-12-13T21:41:49.895Z,-7.88
2022-12-13T21:44:17.804Z,-7.89
2022-12-13T21:49:32.079Z,-7.87
2022-12-13T21:51:58.574Z,-7.84
2022-12-13T21:54:25.110Z,-7.82
2022-12-13T21:57:10.340Z,-7.79
2022-12-13T21:59:36.842Z,-7.74
2022-12-13T22:02:22.473Z,-7.69
2022-12-13T22:04:55.681Z,-7.66
2022-12-13T22:07:26.549Z,-7.60
2022-12-13T22:09:54.221Z,-7.54
2022-12-13T22:12:32.431Z,-7.50
2022-12-13T22:14:59.181Z,-7.48
2022-12-13T22:17:33.085Z,-7.46
2022-12-13T22:20:02.748Z,-7.48
2022-12-13T22:22:30.761Z,-7.46
2022-12-13T22:24:57.371Z,-7.42
2022-12-13T22:27:25.065Z,-7.39
2022-12-13T22:29:52.684Z,-7.39
2022-12-13T22:32:20.171Z,-7.43
2022-12-13T22:34:46.863Z,-7.55
2022-12-13T22:37:13.447Z,-7.64
2022-12-13T22:39:39.893Z,-7.68
2022-12-13T22:42:06.380Z,-7.74
2022-12-13T22:44:32.836Z,-7.76
2022-12-13T22:47:00.626Z,-7.74
2022-12-13T22:49:27.341Z,-7.73
2022-12-13T22:51:53.803Z,-7.71
2022-12-13T22:54:20.772Z,-7.74
2022-12-13T22:56:49.973Z,-7.69
2022-12-13T22:59:17.249Z,-7.64
2022-12-13T23:01:47.043Z,-7.63
2022-12-13T23:04:15.455Z,-7.75
2022-12-13T23:06:42.194Z,-7.74
2022-12-13T23:09:13.145Z,-7.72
2022-12-13T23:12:03.393Z,-7.72
2022-12-13T23:14:54.577Z,-7.72
2022-12-13T23:17:21.240Z,-7.72
2022-12-13T23:19:50.078Z,-7.76
2022-12-13T23:22:25.070Z,-7.73
2022-12-13T23:24:52.724Z,-7.75
2022-12-13T23:27:23.591Z,-7.74
2022-12-13T23:29:50.113Z,-7.72
2022-12-13T23:32:16.572Z,-7.71
2022-12-13T23:34:43.037Z,-7.70
2022-12-13T23:37:09.442Z,-7.67
2022-12-13T23:39:35.900Z,-7.64
2022-12-13T23:42:03.357Z,-7.67
2022-12-13T23:44:29.811Z,-7.72
2022-12-13T23:46:56.366Z,-7.74
2022-12-13T23:49:22.843Z,-7.73
2022-12-13T23:51:49.710Z,-7.78
2022-12-13T23:54:19.562Z,-7.77
2022-12-13T23:56:47.365Z,-7.76
2022-12-13T23:59:14.454Z,-7.77
